Time;durP1;ratioP1;P1;durP2;ratioP2;P2;SDS_P1;SDS_P2;PMS_P1;PMS_P2;Temp;Humidity;BMP_temperature;BMP_pressure;BME280_temperature;BME280_humidity;BME280_pressure;Samples;Min_cycle;Max_cycle;Signal;HPM_P1;HPM_P2
2022/07/04 00:00:13;;;;;;;5.22;1.20;;;;;;;13.89;100.00;100651.78;5115038;28;20047;-90
2022/07/04 00:02:41;;;;;;;3.05;1.00;;;;;;;13.95;100.00;100678.63;5097164;28;20052;-90
2022/07/04 00:05:10;;;;;;;5.45;1.45;;;;;;;14.02;100.00;100672.09;5096972;28;20047;-89
2022/07/04 00:07:38;;;;;;;4.88;1.60;;;;;;;13.95;100.00;100673.38;5097788;28;20063;-89
2022/07/04 00:10:07;;;;;;;6.72;1.50;;;;;;;14.08;100.00;100654.25;5096560;28;20401;-90
2022/07/04 00:12:34;;;;;;;4.35;1.00;;;;;;;14.19;100.00;100658.03;5097664;28;20044;-90
2022/07/04 00:15:03;;;;;;;2.20;0.90;;;;;;;14.17;100.00;100666.94;5108135;28;20047;-90
2022/07/04 00:17:30;;;;;;;2.15;1.00;;;;;;;14.04;100.00;100662.34;5097007;28;20047;-90
2022/07/04 00:19:57;;;;;;;9.00;1.63;;;;;;;13.46;100.00;100608.34;5114898;28;20131;-90
2022/07/04 00:22:24;;;;;;;5.85;1.67;;;;;;;13.65;100.00;100631.06;5095766;28;20043;-90
2022/07/04 00:24:51;;;;;;;3.85;1.45;;;;;;;13.62;100.00;100628.63;5096596;28;20408;-90
2022/07/04 00:27:18;;;;;;;4.80;1.25;;;;;;;13.81;100.00;100644.25;5109534;28;20395;-90
2022/07/04 00:29:45;;;;;;;7.43;1.33;;;;;;;13.66;100.00;100653.81;5096945;28;20044;-89
2022/07/04 00:32:11;;;;;;;3.03;1.33;;;;;;;13.58;100.00;100622.66;5096475;28;20043;-90
2022/07/04 00:34:38;;;;;;;5.05;1.27;;;;;;;13.66;100.00;100638.88;5094780;28;20109;-90
2022/07/04 00:37:05;;;;;;;4.32;1.58;;;;;;;13.88;100.00;100657.97;5083527;28;20090;-89
2022/07/04 00:39:32;;;;;;;3.97;1.20;;;;;;;13.63;100.00;100636.44;5113517;28;20404;-89
2022/07/04 00:42:05;;;;;;;3.50;1.17;;;;;;;13.71;100.00;100617.59;5096294;28;20086;-90
2022/07/04 00:44:36;;;;;;;4.82;1.00;;;;;;;13.77;100.00;100608.53;5082001;28;20393;-89
2022/07/04 00:47:04;;;;;;;4.38;1.20;;;;;;;13.73;100.00;100639.41;5096097;28;20039;-90
2022/07/04 00:49:31;;;;;;;3.60;1.00;;;;;;;13.82;100.00;100614.41;5095495;28;20052;-89
2022/07/04 00:51:59;;;;;;;2.40;1.05;;;;;;;13.95;100.00;100639.16;5082224;28;20118;-90
2022/07/04 00:54:29;;;;;;;2.60;1.00;;;;;;;13.53;100.00;100600.13;5097098;28;20560;-90
2022/07/04 00:56:56;;;;;;;2.95;1.10;;;;;;;13.86;100.00;100629.09;5096583;28;20485;-89
2022/07/04 00:59:23;;;;;;;4.97;1.20;;;;;;;13.84;100.00;100587.06;5096424;28;20473;-90
2022/07/04 01:01:50;;;;;;;8.02;1.20;;;;;;;13.77;100.00;100611.16;5095606;28;20051;-90
2022/07/04 01:04:18;;;;;;;4.35;1.00;;;;;;;13.52;100.00;100588.75;5090171;28;20052;-89
2022/07/04 01:06:45;;;;;;;3.33;0.90;;;;;;;13.50;100.00;100574.84;5098494;28;20051;-90
2022/07/04 01:09:13;;;;;;;5.20;1.13;;;;;;;13.35;100.00;100573.00;5084137;28;20057;-89
2022/07/04 01:11:40;;;;;;;3.20;1.15;;;;;;;13.32;100.00;100581.91;5094803;28;20039;-90
2022/07/04 01:14:07;;;;;;;5.97;1.20;;;;;;;13.42;100.00;100605.94;5099329;28;20047;-90
2022/07/04 01:16:35;;;;;;;4.82;1.40;;;;;;;13.75;100.00;100618.28;5095702;28;20528;-89
2022/07/04 01:19:02;;;;;;;3.05;1.00;;;;;;;13.47;100.00;100556.59;5096096;28;20040;-89
2022/07/04 01:21:31;;;;;;;4.85;1.20;;;;;;;13.74;100.00;100611.31;5104903;28;20055;-89
2022/07/04 01:23:58;;;;;;;5.03;1.20;;;;;;;13.64;100.00;100595.19;5095536;28;20123;-90
2022/07/04 01:26:25;;;;;;;3.60;1.00;;;;;;;13.52;100.00;100587.94;5085793;28;20134;-90
2022/07/04 01:28:51;;;;;;;4.85;1.40;;;;;;;13.21;100.00;100587.69;5107426;28;20713;-89
2022/07/04 01:31:18;;;;;;;2.63;1.00;;;;;;;13.53;100.00;100602.75;5082724;28;20474;-89
2022/07/04 01:33:45;;;;;;;3.53;1.02;;;;;;;13.10;100.00;100568.97;5094592;28;20047;-89
2022/07/04 01:36:12;;;;;;;3.15;0.90;;;;;;;13.34;100.00;100590.56;5095499;28;20060;-89
2022/07/04 01:38:39;;;;;;;3.65;1.20;;;;;;;13.16;100.00;100580.97;5095863;28;20079;-89
2022/07/04 01:41:05;;;;;;;2.17;1.00;;;;;;;12.89;100.00;100556.00;5095612;28;20051;-89
2022/07/04 01:43:32;;;;;;;9.68;1.73;;;;;;;12.70;100.00;100542.09;5102035;28;20127;-90
2022/07/04 01:45:59;;;;;;;2.50;0.90;;;;;;;13.22;100.00;100568.34;5092126;28;20147;-90
2022/07/04 01:48:26;;;;;;;4.18;1.15;;;;;;;12.86;100.00;100547.44;5112964;28;20474;-89
2022/07/04 01:50:53;;;;;;;3.22;1.02;;;;;;;12.82;100.00;100562.50;5094564;28;20065;-89
2022/07/04 01:53:19;;;;;;;3.65;0.95;;;;;;;12.76;100.00;100577.72;5079814;28;20039;-89
2022/07/04 01:55:46;;;;;;;2.67;1.00;;;;;;;12.85;100.00;100572.81;5095099;28;20407;-89
2022/07/04 01:58:13;;;;;;;4.35;0.98;;;;;;;13.04;100.00;100571.94;5079846;28;20051;-89
2022/07/04 02:03:25;;;;;;;2.78;0.93;;;;;;;12.96;100.00;100572.31;5111617;28;20485;-89
2022/07/04 02:05:52;;;;;;;6.55;1.58;;;;;;;13.05;100.00;100579.75;5087334;28;20136;-89
2022/07/04 02:08:19;;;;;;;5.40;1.30;;;;;;;12.99;100.00;100587.06;5097321;28;20488;-89
2022/07/04 02:10:46;;;;;;;3.38;1.10;;;;;;;12.47;100.00;100522.22;5079570;28;20050;-89
2022/07/04 02:13:13;;;;;;;3.63;1.20;;;;;;;12.68;100.00;100546.56;5077738;28;20075;-89
2022/07/04 02:15:41;;;;;;;3.28;1.20;;;;;;;12.81;100.00;100579.19;5094815;28;20048;-89
2022/07/04 02:18:10;;;;;;;8.27;1.17;;;;;;;12.87;100.00;100583.28;5081083;28;20135;-89
2022/07/04 02:20:37;;;;;;;8.48;1.38;;;;;;;12.89;100.00;100594.56;5094808;28;20047;-89
2022/07/04 02:23:05;;;;;;;5.97;1.20;;;;;;;12.70;100.00;100573.63;5086067;28;20040;-89
2022/07/04 02:25:32;;;;;;;2.67;1.00;;;;;;;12.73;100.00;100563.81;5121190;27;20051;-90
2022/07/04 02:27:59;;;;;;;5.65;1.10;;;;;;;12.93;100.00;100585.59;5095290;28;20401;-89
2022/07/04 02:30:26;;;;;;;5.45;1.45;;;;;;;12.89;100.00;100579.66;5113226;28;20404;-89
2022/07/04 02:32:52;;;;;;;9.80;1.52;;;;;;;12.64;100.00;100577.41;5093785;28;20047;-89
2022/07/04 02:35:19;;;;;;;6.20;1.63;;;;;;;12.68;100.00;100557.06;5098359;28;20142;-90
2022/07/04 02:37:46;;;;;;;6.38;1.25;;;;;;;12.43;100.00;100563.53;5074387;28;20051;-90
2022/07/04 02:40:13;;;;;;;4.65;1.23;;;;;;;12.49;100.00;100555.34;5078417;28;20047;-90
2022/07/04 02:42:40;;;;;;;7.38;1.42;;;;;;;12.58;100.00;100551.41;5074920;28;20087;-89
2022/07/04 02:45:07;;;;;;;6.15;1.55;;;;;;;12.52;100.00;100565.69;5092483;28;20048;-89
2022/07/04 02:47:34;;;;;;;6.05;1.60;;;;;;;12.33;100.00;100523.72;5094636;28;20057;-89
2022/07/04 02:50:03;;;;;;;8.98;1.77;;;;;;;12.40;100.00;100547.06;5112266;28;20432;-89
2022/07/04 02:52:30;;;;;;;4.07;1.30;;;;;;;12.63;100.00;100561.69;5093150;28;20047;-90
2022/07/04 02:54:57;;;;;;;6.63;1.48;;;;;;;12.84;100.00;100579.03;5093059;28;20629;-89
2022/07/04 02:57:24;;;;;;;8.38;1.45;;;;;;;12.74;100.00;100567.28;5081966;28;20127;-89
2022/07/04 02:59:51;;;;;;;5.82;1.27;;;;;;;12.61;100.00;100548.66;5097873;28;20135;-89
2022/07/04 03:02:17;;;;;;;3.88;1.10;;;;;;;12.50;100.00;100543.03;5097612;28;20497;-89
2022/07/04 03:04:44;;;;;;;6.88;1.80;;;;;;;12.72;100.00;100550.75;5116778;28;20082;-90
2022/07/04 03:07:12;;;;;;;4.57;1.38;;;;;;;12.60;100.00;100546.09;5116534;28;20043;-89
2022/07/04 03:09:38;;;;;;;6.25;1.25;;;;;;;12.57;100.00;100531.34;5098103;28;20048;-89
2022/07/04 03:12:06;;;;;;;4.57;1.30;;;;;;;12.64;100.00;100545.88;5097211;28;20126;-89
2022/07/04 03:14:32;;;;;;;5.60;1.20;;;;;;;12.62;100.00;100575.75;5090292;28;20079;-89
2022/07/04 03:16:59;;;;;;;5.40;1.60;;;;;;;12.44;100.00;100573.09;5091991;28;20051;-89
2022/07/04 03:19:26;;;;;;;7.07;1.52;;;;;;;12.42;100.00;100558.34;5092626;28;20052;-89
2022/07/04 03:21:53;;;;;;;4.97;1.30;;;;;;;12.32;100.00;100539.53;5083206;28;20050;-89
2022/07/04 03:24:20;;;;;;;5.18;1.25;;;;;;;12.27;100.00;100538.91;5111581;28;20055;-89
2022/07/04 03:26:46;;;;;;;4.63;1.20;;;;;;;12.37;100.00;100539.31;5087588;28;20130;-89
2022/07/04 03:29:13;;;;;;;7.13;1.55;;;;;;;12.47;100.00;100562.44;5095896;28;21613;-89
2022/07/04 03:31:40;;;;;;;5.25;1.35;;;;;;;12.44;100.00;100565.22;5085308;28;20050;-89
2022/07/04 03:34:07;;;;;;;5.00;1.17;;;;;;;12.40;100.00;100550.53;5097656;28;20053;-88
2022/07/04 03:36:33;;;;;;;6.80;1.67;;;;;;;12.42;100.00;100553.94;5078137;28;20076;-88
2022/07/04 03:39:01;;;;;;;4.82;1.50;;;;;;;12.14;100.00;100513.25;5108449;28;20075;-89
2022/07/04 03:41:27;;;;;;;7.80;1.90;;;;;;;12.44;100.00;100548.59;5096987;28;20059;-89
2022/07/04 03:43:54;;;;;;;4.82;1.25;;;;;;;12.54;100.00;100563.84;5097414;28;20409;-89
2022/07/04 03:46:21;;;;;;;5.90;1.25;;;;;;;12.47;100.00;100561.59;5097901;28;20400;-89
2022/07/04 03:48:48;;;;;;;3.20;1.17;;;;;;;12.47;100.00;100541.44;5106606;28;20147;-89
2022/07/04 03:51:15;;;;;;;9.55;1.35;;;;;;;12.61;100.00;100560.94;5110099;28;20054;-88
2022/07/04 03:53:42;;;;;;;5.30;1.13;;;;;;;12.46;100.00;100552.00;5096985;28;20051;-89
2022/07/04 03:56:09;;;;;;;3.78;1.13;;;;;;;12.47;100.00;100525.69;5096611;28;20048;-89
2022/07/04 03:58:36;;;;;;;4.00;1.25;;;;;;;12.85;100.00;100564.94;5083180;28;20040;-89
2022/07/04 04:01:03;;;;;;;2.67;1.17;;;;;;;12.71;100.00;100556.91;5097510;28;20074;-89
2022/07/04 04:06:15;;;;;;;4.88;1.23;;;;;;;12.79;100.00;100548.66;5107874;28;20062;-88
2022/07/04 04:08:42;;;;;;;3.72;1.10;;;;;;;12.89;100.00;100548.13;5097142;28;20117;-88
2022/07/04 04:11:09;;;;;;;4.90;1.23;;;;;;;13.04;100.00;100557.00;5090992;28;20048;-89
2022/07/04 04:13:36;;;;;;;3.50;1.30;;;;;;;12.89;100.00;100545.50;5097278;28;20079;-89
2022/07/04 04:16:03;;;;;;;4.28;1.40;;;;;;;12.98;100.00;100554.69;5097452;28;20101;-89
2022/07/04 04:18:31;;;;;;;4.68;1.10;;;;;;;12.93;100.00;100542.72;5097331;28;20055;-89
2022/07/04 04:20:58;;;;;;;6.22;1.30;;;;;;;12.84;100.00;100565.06;5083046;28;20049;-90
2022/07/04 04:23:24;;;;;;;5.07;1.10;;;;;;;13.00;100.00;100554.63;5086028;28;20056;-89
2022/07/04 04:25:51;;;;;;;5.03;1.30;;;;;;;13.03;100.00;100543.94;5079271;28;20058;-89
2022/07/04 04:28:22;;;;;;;4.75;1.10;;;;;;;13.28;100.00;100556.69;5096864;28;20043;-90
2022/07/04 04:30:50;;;;;;;5.28;1.45;;;;;;;13.15;100.00;100538.06;5082238;28;20048;-89
2022/07/04 04:33:17;;;;;;;3.42;1.10;;;;;;;13.06;100.00;100544.63;5113669;28;20082;-89
2022/07/04 04:35:44;;;;;;;6.40;1.17;;;;;;;13.19;100.00;100552.75;5096818;28;20431;-89
2022/07/04 04:38:11;;;;;;;4.93;1.20;;;;;;;12.99;100.00;100531.88;5096943;28;20385;-89
2022/07/04 04:40:37;;;;;;;6.70;1.40;;;;;;;13.25;100.00;100546.31;5096739;28;20047;-89
2022/07/04 04:43:04;;;;;;;5.53;1.27;;;;;;;13.18;100.00;100539.69;5096369;28;20044;-89
2022/07/04 04:45:31;;;;;;;7.13;1.35;;;;;;;13.18;100.00;100537.91;5114964;28;20055;-89
2022/07/04 04:47:58;;;;;;;7.13;1.20;;;;;;;13.30;100.00;100532.00;5099925;28;20044;-89
2022/07/04 04:50:24;;;;;;;8.82;2.15;;;;;;;13.07;100.00;100543.72;5096734;28;20048;-89
2022/07/04 04:52:51;;;;;;;7.22;1.80;;;;;;;13.16;100.00;100550.28;5099881;28;20424;-89
2022/07/04 04:55:18;;;;;;;3.53;1.33;;;;;;;13.17;100.00;100532.72;5089956;28;20438;-89
2022/07/04 04:57:45;;;;;;;3.28;1.10;;;;;;;13.00;100.00;100523.09;5089525;28;20389;-89
2022/07/04 05:00:12;;;;;;;3.17;1.00;;;;;;;13.21;100.00;100537.75;5096201;28;20058;-89
2022/07/04 05:02:39;;;;;;;3.83;1.10;;;;;;;13.42;100.00;100540.19;5083923;28;20055;-89
2022/07/04 05:05:06;;;;;;;8.27;1.60;;;;;;;13.48;100.00;100537.25;5084849;28;20531;-89
2022/07/04 05:07:33;;;;;;;4.38;1.13;;;;;;;13.27;100.00;100531.31;5086253;28;20056;-89
2022/07/04 05:10:02;;;;;;;3.90;1.10;;;;;;;13.16;100.00;100552.06;5091558;28;20043;-89
2022/07/04 05:12:29;;;;;;;7.63;1.85;;;;;;;12.92;100.00;100528.72;5095574;28;20491;-89
2022/07/04 05:14:55;;;;;;;8.32;1.45;;;;;;;12.62;100.00;100500.41;5096537;28;20044;-89
2022/07/04 05:17:23;;;;;;;6.38;1.35;;;;;;;13.21;100.00;100543.00;5093044;28;20481;-89
2022/07/04 05:19:50;;;;;;;3.05;1.00;;;;;;;12.98;100.00;100535.44;5084104;28;20409;-89
2022/07/04 05:22:17;;;;;;;6.00;1.30;;;;;;;13.09;100.00;100538.38;5094492;28;20058;-89
2022/07/04 05:24:44;;;;;;;4.18;1.38;;;;;;;13.18;100.00;100511.59;5082740;28;20036;-89
2022/07/04 05:27:12;;;;;;;7.22;1.17;;;;;;;13.27;100.00;100549.72;5096029;28;20394;-88
2022/07/04 05:29:38;;;;;;;3.75;1.25;;;;;;;13.22;100.00;100555.19;5090153;28;20040;-88
2022/07/04 05:32:06;;;;;;;6.53;1.33;;;;;;;13.21;100.00;100521.09;5104558;28;20493;-88
2022/07/04 05:34:33;;;;;;;4.25;1.20;;;;;;;13.33;100.00;100538.06;5095230;28;20393;-88
2022/07/04 05:37:00;;;;;;;4.32;1.10;;;;;;;13.15;100.00;100531.94;5095519;28;20090;-89
2022/07/04 05:39:27;;;;;;;6.80;1.17;;;;;;;13.50;100.00;100550.34;5095130;28;20043;-90
2022/07/04 05:41:54;;;;;;;4.70;0.98;;;;;;;13.39;100.00;100546.50;5095015;28;20047;-89
2022/07/04 05:44:21;;;;;;;5.03;1.20;;;;;;;13.47;100.00;100518.00;5094415;28;20552;-89
2022/07/04 05:46:48;;;;;;;5.32;1.15;;;;;;;13.42;100.00;100508.66;5094818;28;20131;-89
2022/07/04 05:49:14;;;;;;;3.30;1.05;;;;;;;13.66;100.00;100512.59;5095607;28;20043;-89
2022/07/04 05:51:41;;;;;;;4.45;1.17;;;;;;;13.59;100.00;100534.06;5098855;28;20051;-89
2022/07/04 05:54:08;;;;;;;2.83;1.00;;;;;;;13.67;100.00;100532.72;5095362;28;20481;-89
2022/07/04 05:56:37;;;;;;;3.28;0.93;;;;;;;13.89;100.00;100542.09;5098937;28;20054;-89
2022/07/04 05:59:04;;;;;;;3.22;0.90;;;;;;;13.86;100.00;100529.06;5095320;28;20799;-89
2022/07/04 06:01:30;;;;;;;3.25;0.90;;;;;;;13.84;100.00;100537.06;5094491;28;20496;-89
2022/07/04 06:03:57;;;;;;;3.75;1.00;;;;;;;14.03;100.00;100536.91;5094847;28;20050;-89
2022/07/04 06:06:24;;;;;;;2.38;0.75;;;;;;;14.07;100.00;100545.47;5094681;28;20051;-89
2022/07/04 06:08:51;;;;;;;3.05;1.02;;;;;;;14.11;100.00;100557.56;5094433;28;20079;-89
2022/07/04 06:11:18;;;;;;;2.25;0.80;;;;;;;14.16;100.00;100542.34;5094086;28;20058;-89
2022/07/04 06:13:45;;;;;;;3.10;0.95;;;;;;;14.09;100.00;100540.97;5090138;28;20051;-88
2022/07/04 06:16:12;;;;;;;3.00;0.95;;;;;;;14.11;100.00;100541.75;5074479;28;20130;-89
2022/07/04 06:18:38;;;;;;;2.05;1.00;;;;;;;14.21;100.00;100548.19;5087357;28;20058;-89
2022/07/04 06:21:06;;;;;;;3.10;0.90;;;;;;;14.19;100.00;100552.69;5079984;28;20770;-89
2022/07/04 06:23:32;;;;;;;3.25;1.00;;;;;;;13.94;100.00;100528.69;5093671;28;20495;-89
2022/07/04 06:25:59;;;;;;;5.15;1.20;;;;;;;13.91;100.00;100527.03;5112934;28;20362;-89
2022/07/04 06:28:27;;;;;;;4.15;1.10;;;;;;;14.13;100.00;100546.91;5103102;28;20059;-89
2022/07/04 06:31:13;;;;;;;8.25;1.10;;;;;;;14.18;100.00;100551.03;5094941;28;20059;-88
2022/07/04 06:36:25;;;;;;;2.28;0.90;;;;;;;14.12;100.00;100530.28;5114732;28;20111;-88
2022/07/04 06:39:05;;;;;;;2.28;0.90;;;;;;;14.04;100.00;100512.28;5103093;28;20082;-87
2022/07/04 06:41:46;;;;;;;4.53;1.35;;;;;;;14.07;100.00;100555.16;5120461;28;20134;-88
2022/07/04 06:44:27;;;;;;;5.05;1.30;;;;;;;14.03;100.00;100538.69;5119292;28;20023;-89
2022/07/04 06:47:10;;;;;;;4.47;1.17;;;;;;;14.15;100.00;100553.81;5134616;28;20023;-88
2022/07/04 06:49:50;;;;;;;4.13;0.98;;;;;;;14.21;100.00;100561.34;5099243;28;20035;-88
2022/07/04 06:52:31;;;;;;;2.83;0.90;;;;;;;14.31;100.00;100555.59;5110166;28;20035;-89
2022/07/04 06:55:12;;;;;;;5.05;1.20;;;;;;;14.30;100.00;100567.06;5104687;28;20094;-88
2022/07/04 06:57:53;;;;;;;4.60;1.33;;;;;;;13.78;100.00;100541.81;5119373;28;20050;-87
2022/07/04 07:00:35;;;;;;;3.63;1.05;;;;;;;13.88;100.00;100542.16;5113767;28;20057;-88
2022/07/04 07:03:16;;;;;;;1.65;0.95;;;;;;;14.21;100.00;100557.88;5126417;28;20084;-89
2022/07/04 07:05:57;;;;;;;3.03;0.93;;;;;;;13.81;100.00;100508.28;5094944;28;20113;-88
2022/07/04 07:08:38;;;;;;;4.95;0.98;;;;;;;14.10;100.00;100569.00;5134466;28;20035;-88
2022/07/04 07:11:19;;;;;;;6.38;1.27;;;;;;;14.10;100.00;100569.00;5103826;28;20047;-88
2022/07/04 07:14:00;;;;;;;1.95;0.82;;;;;;;14.18;100.00;100577.34;5102799;28;20093;-87
2022/07/04 07:16:41;;;;;;;9.10;1.10;;;;;;;14.12;100.00;100538.19;5095598;28;20039;-88
2022/07/04 07:19:22;;;;;;;7.82;1.38;;;;;;;13.85;100.00;100530.88;5113604;28;20035;-87
2022/07/04 07:22:03;;;;;;;2.03;0.90;;;;;;;14.32;100.00;100573.94;5105154;28;20051;-88
2022/07/04 07:24:44;;;;;;;6.20;1.20;;;;;;;14.07;100.00;100582.34;5075865;28;20142;-87
2022/07/04 07:27:27;;;;;;;6.25;1.33;;;;;;;14.12;100.00;100553.13;5119019;28;20027;-88
2022/07/04 07:30:08;;;;;;;3.28;1.10;;;;;;;14.23;100.00;100550.75;5098246;28;20068;-88
2022/07/04 07:32:49;;;;;;;3.10;0.90;;;;;;;14.64;100.00;100563.38;5112225;28;20028;-88
2022/07/04 07:35:31;;;;;;;4.32;1.00;;;;;;;14.54;100.00;100564.84;5088732;28;20040;-88
2022/07/04 07:38:12;;;;;;;3.97;1.33;;;;;;;14.68;100.00;100512.22;5094528;28;20083;-87
2022/07/04 07:40:47;;;;;;;7.47;1.98;;;;;;;14.89;100.00;100560.19;5117937;28;20062;-87
2022/07/04 07:43:29;;;;;;;4.15;1.00;;;;;;;15.99;100.00;100558.88;5116488;28;20085;-88
2022/07/04 07:46:09;;;;;;;2.90;1.08;;;;;;;16.08;100.00;100555.69;5106503;28;20043;-87
2022/07/04 07:48:50;;;;;;;3.63;1.10;;;;;;;15.98;100.00;100528.16;5112123;28;20079;-88
2022/07/04 07:51:31;;;;;;;2.30;1.00;;;;;;;16.59;100.00;100552.38;5119104;28;20066;-88
2022/07/04 07:54:13;;;;;;;2.17;0.82;;;;;;;17.22;100.00;100550.84;5122059;28;20058;-88
2022/07/04 07:56:54;;;;;;;7.32;1.25;;;;;;;16.47;100.00;100499.41;5122747;28;20043;-87
2022/07/04 07:59:35;;;;;;;3.15;1.00;;;;;;;16.12;100.00;100554.53;5120878;28;20032;-88
2022/07/04 08:02:15;;;;;;;13.43;1.65;;;;;;;15.85;100.00;100534.22;5089348;28;20275;-90
2022/07/04 08:04:56;;;;;;;3.53;1.00;;;;;;;16.09;100.00;100534.44;5117547;28;20081;-88
2022/07/04 08:07:38;;;;;;;4.65;0.70;;;;;;;16.84;100.00;100551.66;5127419;28;20059;-88
2022/07/04 08:10:19;;;;;;;3.17;1.10;;;;;;;16.39;100.00;100528.13;5090878;28;20062;-87
2022/07/04 08:13:00;;;;;;;2.72;0.90;;;;;;;16.87;100.00;100541.72;5109017;28;20103;-89
2022/07/04 08:15:43;;;;;;;2.28;0.70;;;;;;;17.33;100.00;100552.75;5118113;28;20048;-85
2022/07/04 08:18:24;;;;;;;;;;;;;;;17.62;100.00;100545.47;5113605;28;20048;-90
2022/07/04 08:21:05;;;;;;;3.83;0.88;;;;;;;17.49;100.00;100531.38;5121976;28;19920;-89
2022/07/04 08:23:46;;;;;;;1.67;0.70;;;;;;;17.81;100.00;100558.22;5116865;28;20066;-88
2022/07/04 08:26:27;;;;;;;2.38;0.90;;;;;;;17.84;100.00;100558.00;5106969;28;20031;-88
2022/07/04 08:29:09;;;;;;;1.42;0.70;;;;;;;18.10;100.00;100542.94;5107122;28;20024;-87
2022/07/04 08:31:50;;;;;;;2.20;0.93;;;;;;;18.19;100.00;100538.78;5136409;28;20031;-87
2022/07/04 08:34:32;;;;;;;1.90;0.60;;;;;;;18.39;100.00;100530.19;5122345;28;20039;-88
2022/07/04 08:37:13;;;;;;;3.00;0.70;;;;;;;18.15;97.82;100530.22;5121852;28;20048;-88
2022/07/04 08:39:55;;;;;;;0.68;0.60;;;;;;;17.94;100.00;100548.50;5108583;28;20031;-88
2022/07/04 08:42:38;;;;;;;3.78;0.98;;;;;;;18.42;100.00;100553.00;5121426;28;20042;-88
2022/07/04 08:45:27;;;;;;;2.40;0.70;;;;;;;18.27;94.08;100564.72;5100926;28;20036;-88
2022/07/04 08:48:09;;;;;;;2.33;0.70;;;;;;;18.02;96.06;100563.84;5104427;28;20043;-88
2022/07/04 08:50:55;;;;;;;1.15;0.60;;;;;;;17.64;96.01;100509.97;5086833;28;20063;-88
2022/07/04 08:53:39;;;;;;;1.73;0.70;;;;;;;17.91;96.24;100556.66;5107826;28;20055;-88
2022/07/04 08:59:21;;;;;;;3.58;0.70;;;;;;;17.51;97.61;100558.56;5124429;28;20047;-88
2022/07/04 09:02:04;;;;;;;2.35;0.75;;;;;;;17.39;100.00;100536.47;5087366;28;20070;-88
2022/07/04 09:04:46;;;;;;;1.98;0.70;;;;;;;17.56;100.00;100567.88;5124733;28;20047;-87
2022/07/04 09:07:28;;;;;;;2.20;0.60;;;;;;;17.19;100.00;100508.72;5121141;28;20048;-88
2022/07/04 09:10:10;;;;;;;1.75;0.75;;;;;;;17.91;100.00;100569.91;5136855;28;20268;-88
2022/07/04 09:12:52;;;;;;;3.33;0.75;;;;;;;17.83;100.00;100569.56;5100084;28;20044;-87
2022/07/04 09:15:33;;;;;;;0.98;0.60;;;;;;;17.63;100.00;100547.97;5103007;28;20051;-89
2022/07/04 09:18:32;;;;;;;0.55;0.47;;;;;;;17.65;100.00;100574.34;5120927;28;20047;-88
2022/07/04 09:21:13;;;;;;;2.30;0.70;;;;;;;17.13;100.00;100572.66;5106666;28;20032;-88
2022/07/04 09:23:55;;;;;;;1.42;0.50;;;;;;;17.26;100.00;100563.78;5130310;28;20038;-89
2022/07/04 09:26:40;;;;;;;1.27;0.65;;;;;;;17.40;100.00;100549.56;5112853;28;20073;-89
2022/07/04 09:29:21;;;;;;;0.75;0.52;;;;;;;17.44;100.00;100595.19;5102684;28;20039;-88
2022/07/04 09:32:40;;;;;;;1.45;0.60;;;;;;;17.02;100.00;100571.56;5115492;28;20047;-88
2022/07/04 09:35:25;;;;;;;4.43;0.60;;;;;;;16.83;100.00;100593.09;5095336;28;20103;-88
2022/07/04 09:38:07;;;;;;;1.15;0.60;;;;;;;16.69;100.00;100599.25;5120153;28;20477;-88
2022/07/04 09:44:05;;;;;;;2.28;0.70;;;;;;;16.30;100.00;100577.09;5102591;28;20047;-87
2022/07/04 09:46:48;;;;;;;2.40;0.63;;;;;;;16.26;100.00;100585.34;5107292;28;20027;-88
2022/07/04 09:49:28;;;;;;;1.85;0.60;;;;;;;16.31;100.00;100592.03;5120499;28;20024;-87
2022/07/04 09:52:09;;;;;;;2.53;0.63;;;;;;;16.27;100.00;100602.88;5098495;28;20091;-88
2022/07/04 09:54:51;;;;;;;1.98;0.95;;;;;;;16.09;100.00;100560.84;5116999;28;20062;-88
2022/07/04 09:57:33;;;;;;;1.45;0.60;;;;;;;15.72;100.00;100559.63;5105455;28;20044;-87
2022/07/04 10:00:18;;;;;;;1.85;0.73;;;;;;;16.20;100.00;100609.50;5114437;28;20111;-88
2022/07/04 10:03:25;;;;;;;1.30;0.60;;;;;;;16.30;100.00;100613.25;5119233;28;20051;-88
2022/07/04 10:06:09;;;;;;;2.63;0.90;;;;;;;16.45;100.00;100617.56;5111043;28;20034;-86
2022/07/04 10:08:50;;;;;;;2.33;0.70;;;;;;;16.34;100.00;100620.03;5105334;28;20020;-86
2022/07/04 10:11:36;;;;;;;2.53;0.68;;;;;;;16.37;100.00;100621.66;5092664;28;20148;-88
2022/07/04 10:14:18;;;;;;;4.03;0.95;;;;;;;16.49;100.00;100616.41;5104334;28;20172;-87
2022/07/04 10:16:59;;;;;;;1.73;0.70;;;;;;;16.88;100.00;100621.91;5099319;28;20170;-88
2022/07/04 10:19:40;;;;;;;3.47;0.98;;;;;;;17.12;100.00;100623.84;5086742;28;20046;-87
2022/07/04 10:22:22;;;;;;;0.95;0.60;;;;;;;16.91;100.00;100595.25;5099869;28;20039;-88
2022/07/04 10:25:07;;;;;;;3.40;0.88;;;;;;;17.27;100.00;100618.38;5134652;28;20039;-88
2022/07/04 10:27:50;;;;;;;1.15;0.60;;;;;;;17.62;100.00;100633.66;5089485;28;20035;-86
2022/07/04 10:30:39;;;;;;;2.70;0.70;;;;;;;17.42;100.00;100602.41;5105378;28;20051;-88
2022/07/04 10:33:29;;;;;;;3.28;0.88;;;;;;;17.52;100.00;100624.66;5096469;28;20049;-88
2022/07/04 10:36:14;;;;;;;1.95;0.80;;;;;;;17.46;100.00;100638.31;5128105;28;20081;-88
2022/07/04 10:39:04;;;;;;;1.88;0.75;;;;;;;17.23;100.00;100626.66;5111470;28;20023;-88
2022/07/04 10:41:57;;;;;;;2.85;0.70;;;;;;;17.41;100.00;100641.25;5111167;28;20039;-87
2022/07/04 10:44:38;;;;;;;2.17;0.80;;;;;;;17.62;100.00;100636.31;5131868;28;20055;-88
2022/07/04 10:47:25;;;;;;;3.17;0.80;;;;;;;17.80;100.00;100631.53;5110368;27;20036;-85
2022/07/04 10:50:06;;;;;;;2.22;0.80;;;;;;;17.63;100.00;100623.91;5098776;28;20048;-87
2022/07/04 10:53:09;;;;;;;0.95;0.75;;;;;;;17.73;100.00;100647.97;5092440;28;20076;-89
2022/07/04 10:55:50;;;;;;;0.77;0.52;;;;;;;17.53;100.00;100623.72;5125534;28;20038;-88
2022/07/04 10:58:42;;;;;;;2.78;0.60;;;;;;;17.49;100.00;100655.78;5114471;28;20032;-86
2022/07/04 11:01:23;;;;;;;4.50;0.77;;;;;;;17.24;100.00;100671.50;5129070;28;20051;-88
2022/07/04 11:04:05;;;;;;;3.53;0.90;;;;;;;15.85;100.00;100631.88;5098011;28;20048;-84
2022/07/04 11:06:32;;;;;;;3.55;0.82;;;;;;;16.31;100.00;100691.59;5090438;28;20044;-82
2022/07/04 11:09:14;;;;;;;1.50;0.60;;;;;;;16.48;100.00;100683.44;5099754;28;20086;-83
2022/07/04 11:11:56;;;;;;;2.85;0.80;;;;;;;16.49;100.00;100669.28;5094033;28;20067;-83
2022/07/04 11:14:31;;;;;;;2.55;0.80;;;;;;;16.44;100.00;100644.09;5124241;28;20052;-85
2022/07/04 11:17:34;;;;;;;3.25;0.80;;;;;;;16.63;100.00;100649.91;5125659;28;20047;-85
2022/07/04 11:20:07;;;;;;;2.70;0.90;;;;;;;16.78;100.00;100612.84;5105397;28;20043;-86
2022/07/04 11:22:34;;;;;;;1.83;0.70;;;;;;;16.67;100.00;100617.03;5132188;28;20024;-85
2022/07/04 11:25:15;;;;;;;1.65;0.63;;;;;;;17.10;100.00;100647.75;5112397;28;20054;-84
2022/07/04 11:27:54;;;;;;;2.05;0.70;;;;;;;17.12;100.00;100650.31;5137891;28;20061;-86
2022/07/04 11:30:35;;;;;;;1.90;0.82;;;;;;;17.33;100.00;100679.78;5121340;28;20406;-84
2022/07/04 11:33:22;;;;;;;3.03;0.70;;;;;;;16.79;100.00;100638.34;5118039;28;20073;-87
2022/07/04 11:36:20;;;;;;;1.60;0.70;;;;;;;16.67;100.00;100645.25;5136438;28;20048;-84
2022/07/04 11:39:07;;;;;;;2.25;0.70;;;;;;;17.15;100.00;100682.69;5114643;28;20042;-88
2022/07/04 11:50:27;;;;;;;2.15;0.77;;;;;;;17.48;100.00;100673.47;5086735;28;20610;-88
2022/07/04 11:52:56;;;;;;;2.28;0.77;;;;;;;17.69;100.00;100671.16;5100974;27;20047;-88
2022/07/04 11:55:57;;;;;;;3.60;0.93;;;;;;;17.44;100.00;100686.06;5090520;28;20059;-88
2022/07/04 11:58:24;;;;;;;2.60;0.60;;;;;;;17.46;100.00;100688.59;5087455;28;20083;-88
2022/07/04 12:00:51;;;;;;;4.28;0.80;;;;;;;17.76;100.00;100666.25;5082577;28;20050;-89
2022/07/04 12:03:18;;;;;;;1.83;0.60;;;;;;;18.14;100.00;100684.00;5085875;28;20052;-88
2022/07/04 12:05:46;;;;;;;2.33;0.80;;;;;;;18.29;100.00;100667.03;5081942;28;20431;-88
2022/07/04 12:08:13;;;;;;;0.70;0.60;;;;;;;18.13;100.00;100669.03;5100787;28;20060;-89